sensor_id;sensor_type;location;lat;lon;timestamp;pressure;altitude;pressure_sealevel;temperature;humidity
29941;BME280;16801;53.562;10.038;2022-12-26T00:00:28;100788.41;;;7.40;100.00
29941;BME280;16801;53.562;10.038;2022-12-26T00:03:49;100803.66;;;7.51;100.00
29941;BME280;16801;53.562;10.038;2022-12-26T00:07:11;100790.13;;;7.52;100.00
29941;BME280;16801;53.562;10.038;2022-12-26T00:10:31;100790.88;;;7.54;100.00
29941;BME280;16801;53.562;10.038;2022-12-26T00:13:54;100775.75;;;7.64;100.00
29941;BME280;16801;53.562;10.038;2022-12-26T00:17:16;100786.72;;;7.72;100.00
29941;BME280;16801;53.562;10.038;2022-12-26T00:20:37;100783.97;;;7.74;100.00
29941;BME280;16801;53.562;10.038;2022-12-26T00:23:58;100792.72;;;7.65;100.00
29941;BME280;16801;53.562;10.038;2022-12-26T00:27:19;100784.41;;;7.68;100.00
29941;BME280;16801;53.562;10.038;2022-12-26T00:30:40;100776.34;;;7.68;100.00
29941;BME280;16801;53.562;10.038;2022-12-26T00:34:03;100783.53;;;7.45;100.00
29941;BME280;16801;53.562;10.038;2022-12-26T00:37:23;100790.22;;;7.40;100.00
29941;BME280;16801;53.562;10.038;2022-12-26T00:40:44;100787.75;;;7.37;100.00
29941;BME280;16801;53.562;10.038;2022-12-26T00:44:05;100798.88;;;7.32;100.00
29941;BME280;16801;53.562;10.038;2022-12-26T00:47:26;100819.94;;;7.25;100.00
29941;BME280;16801;53.562;10.038;2022-12-26T00:50:49;100817.63;;;7.32;100.00
29941;BME280;16801;53.562;10.038;2022-12-26T00:54:10;100813.16;;;7.44;100.00
29941;BME280;16801;53.562;10.038;2022-12-26T00:57:30;100810.75;;;7.28;100.00
29941;BME280;16801;53.562;10.038;2022-12-26T01:00:51;100816.91;;;7.30;100.00
29941;BME280;16801;53.562;10.038;2022-12-26T01:04:12;100809.22;;;7.37;100.00
29941;BME280;16801;53.562;10.038;2022-12-26T01:07:35;100806.66;;;7.35;100.00
29941;BME280;16801;53.562;10.038;2022-12-26T01:10:57;100810.16;;;7.24;100.00
29941;BME280;16801;53.562;10.038;2022-12-26T01:14:17;100809.22;;;7.37;100.00
29941;BME280;16801;53.562;10.038;2022-12-26T01:17:38;100807.78;;;7.44;100.00
29941;BME280;16801;53.562;10.038;2022-12-26T01:21:01;100817.56;;;7.56;100.00
29941;BME280;16801;53.562;10.038;2022-12-26T01:24:23;100819.97;;;7.48;100.00
29941;BME280;16801;53.562;10.038;2022-12-26T01:27:44;100814.56;;;7.37;100.00
29941;BME280;16801;53.562;10.038;2022-12-26T01:31:05;100808.91;;;7.52;100.00
29941;BME280;16801;53.562;10.038;2022-12-26T01:34:26;100786.25;;;7.67;100.00
29941;BME280;16801;53.562;10.038;2022-12-26T01:37:47;100790.41;;;7.71;100.00
29941;BME280;16801;53.562;10.038;2022-12-26T01:41:09;100782.72;;;7.67;100.00
29941;BME280;16801;53.562;10.038;2022-12-26T01:44:57;100791.09;;;7.51;100.00
29941;BME280;16801;53.562;10.038;2022-12-26T01:48:20;100802.38;;;7.33;100.00
29941;BME280;16801;53.562;10.038;2022-12-26T01:51:43;100801.28;;;7.35;100.00
29941;BME280;16801;53.562;10.038;2022-12-26T01:55:08;100807.66;;;7.34;100.00
29941;BME280;16801;53.562;10.038;2022-12-26T01:58:35;100803.97;;;7.35;100.00
29941;BME280;16801;53.562;10.038;2022-12-26T02:01:59;100812.38;;;7.31;100.00
29941;BME280;16801;53.562;10.038;2022-12-26T02:05:22;100803.03;;;7.47;100.00
29941;BME280;16801;53.562;10.038;2022-12-26T02:08:55;100806.56;;;7.48;100.00
29941;BME280;16801;53.562;10.038;2022-12-26T02:12:19;100812.84;;;7.59;100.00
29941;BME280;16801;53.562;10.038;2022-12-26T02:15:43;100817.91;;;7.51;100.00
29941;BME280;16801;53.562;10.038;2022-12-26T02:19:09;100819.72;;;7.40;100.00
29941;BME280;16801;53.562;10.038;2022-12-26T02:30:35;100824.16;;;7.17;100.00
29941;BME280;16801;53.562;10.038;2022-12-26T02:34:08;100820.28;;;7.21;100.00
29941;BME280;16801;53.562;10.038;2022-12-26T02:37:45;100816.72;;;7.20;100.00
29941;BME280;16801;53.562;10.038;2022-12-26T02:41:19;100824.03;;;7.18;100.00
29941;BME280;16801;53.562;10.038;2022-12-26T02:44:47;100825.22;;;7.14;100.00
29941;BME280;16801;53.562;10.038;2022-12-26T02:48:38;100828.78;;;7.15;100.00
29941;BME280;16801;53.562;10.038;2022-12-26T02:52:08;100827.31;;;7.22;100.00
29941;BME280;16801;53.562;10.038;2022-12-26T02:55:53;100826.25;;;7.24;100.00
29941;BME280;16801;53.562;10.038;2022-12-26T02:59:40;100822.69;;;7.24;100.00
29941;BME280;16801;53.562;10.038;2022-12-26T03:03:24;100819.31;;;7.33;100.00
29941;BME280;16801;53.562;10.038;2022-12-26T03:07:13;100815.56;;;7.36;100.00
29941;BME280;16801;53.562;10.038;2022-12-26T03:10:54;100821.56;;;7.50;100.00
29941;BME280;16801;53.562;10.038;2022-12-26T03:14:37;100814.88;;;7.56;100.00
29941;BME280;16801;53.562;10.038;2022-12-26T03:18:02;100822.44;;;7.51;100.00
29941;BME280;16801;53.562;10.038;2022-12-26T03:21:26;100814.00;;;7.44;100.00
29941;BME280;16801;53.562;10.038;2022-12-26T03:24:50;100822.91;;;7.45;100.00
29941;BME280;16801;53.562;10.038;2022-12-26T03:28:26;100818.84;;;7.39;100.00
29941;BME280;16801;53.562;10.038;2022-12-26T03:31:47;100817.91;;;7.40;100.00
29941;BME280;16801;53.562;10.038;2022-12-26T03:35:10;100814.84;;;7.34;100.00
29941;BME280;16801;53.562;10.038;2022-12-26T03:38:35;100819.19;;;7.35;100.00
29941;BME280;16801;53.562;10.038;2022-12-26T03:42:14;100816.19;;;7.39;100.00
29941;BME280;16801;53.562;10.038;2022-12-26T03:46:05;100806.81;;;7.45;100.00
29941;BME280;16801;53.562;10.038;2022-12-26T03:49:52;100827.50;;;7.43;100.00
29941;BME280;16801;53.562;10.038;2022-12-26T03:53:39;100823.00;;;7.43;100.00
29941;BME280;16801;53.562;10.038;2022-12-26T03:57:25;100815.34;;;7.50;100.00
29941;BME280;16801;53.562;10.038;2022-12-26T04:01:08;100818.16;;;7.48;100.00
29941;BME280;16801;53.562;10.038;2022-12-26T04:04:51;100818.03;;;7.50;100.00
29941;BME280;16801;53.562;10.038;2022-12-26T04:08:47;100822.66;;;7.48;100.00
29941;BME280;16801;53.562;10.038;2022-12-26T04:12:29;100822.91;;;7.45;100.00
29941;BME280;16801;53.562;10.038;2022-12-26T04:16:15;100817.66;;;7.43;100.00
29941;BME280;16801;53.562;10.038;2022-12-26T04:20:00;100803.88;;;7.48;100.00
29941;BME280;16801;53.562;10.038;2022-12-26T04:23:29;100820.97;;;7.47;100.00
29941;BME280;16801;53.562;10.038;2022-12-26T04:27:11;100822.44;;;7.51;100.00
29941;BME280;16801;53.562;10.038;2022-12-26T04:30:55;100821.06;;;7.45;100.00
29941;BME280;16801;53.562;10.038;2022-12-26T04:34:40;100823.75;;;7.45;100.00
29941;BME280;16801;53.562;10.038;2022-12-26T04:38:27;100820.97;;;7.47;100.00
29941;BME280;16801;53.562;10.038;2022-12-26T04:42:07;100818.16;;;7.48;100.00
29941;BME280;16801;53.562;10.038;2022-12-26T04:45:47;100833.16;;;7.51;100.00
29941;BME280;16801;53.562;10.038;2022-12-26T04:49:11;100818.16;;;7.48;100.00
29941;BME280;16801;53.562;10.038;2022-12-26T04:52:49;100816.34;;;7.49;100.00
29941;BME280;16801;53.562;10.038;2022-12-26T04:56:20;100825.00;;;7.52;100.00
29941;BME280;16801;53.562;10.038;2022-12-26T04:59:41;100826.25;;;7.59;100.00
29941;BME280;16801;53.562;10.038;2022-12-26T05:03:02;100813.56;;;7.61;100.00
29941;BME280;16801;53.562;10.038;2022-12-26T05:06:41;100820.03;;;7.59;100.00
29941;BME280;16801;53.562;10.038;2022-12-26T05:10:20;100830.75;;;7.59;100.00
29941;BME280;16801;53.562;10.038;2022-12-26T05:13:42;100838.44;;;7.63;100.00
29941;BME280;16801;53.562;10.038;2022-12-26T05:17:04;100848.91;;;7.66;100.00
29941;BME280;16801;53.562;10.038;2022-12-26T05:20:42;100840.88;;;7.66;100.00
29941;BME280;16801;53.562;10.038;2022-12-26T05:24:22;100836.25;;;7.68;100.00
29941;BME280;16801;53.562;10.038;2022-12-26T05:28:02;100838.06;;;7.68;100.00
29941;BME280;16801;53.562;10.038;2022-12-26T05:31:40;100836.03;;;7.71;100.00
29941;BME280;16801;53.562;10.038;2022-12-26T05:35:01;100836.63;;;7.75;100.00
29941;BME280;16801;53.562;10.038;2022-12-26T05:38:22;100823.22;;;7.75;100.00
29941;BME280;16801;53.562;10.038;2022-12-26T05:41:45;100840.03;;;7.77;100.00
29941;BME280;16801;53.562;10.038;2022-12-26T05:45:07;100838.22;;;7.77;100.00
29941;BME280;16801;53.562;10.038;2022-12-26T05:48:28;100830.19;;;7.77;100.00
29941;BME280;16801;53.562;10.038;2022-12-26T05:51:49;100824.69;;;7.79;100.00
29941;BME280;16801;53.562;10.038;2022-12-26T05:55:10;100824.56;;;7.80;100.00
29941;BME280;16801;53.562;10.038;2022-12-26T05:58:32;100841.50;;;7.81;100.00
29941;BME280;16801;53.562;10.038;2022-12-26T06:01:53;100822.59;;;7.82;100.00
29941;BME280;16801;53.562;10.038;2022-12-26T06:05:14;100830.66;;;7.82;100.00
29941;BME280;16801;53.562;10.038;2022-12-26T06:08:35;100835.78;;;7.85;100.00
29941;BME280;16801;53.562;10.038;2022-12-26T06:11:56;100824.69;;;7.90;100.00
29941;BME280;16801;53.562;10.038;2022-12-26T06:15:18;100828.47;;;7.87;100.00
29941;BME280;16801;53.562;10.038;2022-12-26T06:18:39;100822.97;;;7.89;100.00
29941;BME280;16801;53.562;10.038;2022-12-26T06:22:01;100822.16;;;7.88;100.00
29941;BME280;16801;53.562;10.038;2022-12-26T06:25:22;100828.25;;;7.90;100.00
29941;BME280;16801;53.562;10.038;2022-12-26T06:28:43;100837.13;;;7.91;100.00
29941;BME280;16801;53.562;10.038;2022-12-26T06:32:07;100838.00;;;7.91;100.00
29941;BME280;16801;53.562;10.038;2022-12-26T06:35:27;100838.00;;;7.91;100.00
29941;BME280;16801;53.562;10.038;2022-12-26T06:38:48;100842.28;;;7.94;100.00
29941;BME280;16801;53.562;10.038;2022-12-26T06:42:09;100837.63;;;7.96;100.00
29941;BME280;16801;53.562;10.038;2022-12-26T06:45:30;100849.22;;;7.96;100.00
29941;BME280;16801;53.562;10.038;2022-12-26T06:48:53;100850.06;;;7.97;100.00
29941;BME280;16801;53.562;10.038;2022-12-26T06:52:14;100855.44;;;7.97;100.00
29941;BME280;16801;53.562;10.038;2022-12-26T06:55:35;100849.72;;;8.01;100.00
29941;BME280;16801;53.562;10.038;2022-12-26T06:58:57;100859.59;;;8.01;100.00
29941;BME280;16801;53.562;10.038;2022-12-26T07:02:18;100865.59;;;8.04;100.00
29941;BME280;16801;53.562;10.038;2022-12-26T07:05:40;100861.69;;;8.08;100.00
29941;BME280;16801;53.562;10.038;2022-12-26T07:09:03;100862.66;;;8.07;100.00
29941;BME280;16801;53.562;10.038;2022-12-26T07:12:24;100873.88;;;8.13;100.00
29941;BME280;16801;53.562;10.038;2022-12-26T07:15:45;100878.53;;;8.11;100.00
29941;BME280;16801;53.562;10.038;2022-12-26T07:19:06;100881.34;;;8.09;100.00
29941;BME280;16801;53.562;10.038;2022-12-26T07:22:30;100877.53;;;8.12;100.00
29941;BME280;16801;53.562;10.038;2022-12-26T07:25:51;100889.75;;;8.16;100.00
29941;BME280;16801;53.562;10.038;2022-12-26T07:29:13;100890.50;;;8.18;100.00
29941;BME280;16801;53.562;10.038;2022-12-26T07:32:34;100897.69;;;8.17;100.00
29941;BME280;16801;53.562;10.038;2022-12-26T07:35:58;100903.06;;;8.17;100.00
29941;BME280;16801;53.562;10.038;2022-12-26T07:39:20;100906.13;;;8.24;100.00
29941;BME280;16801;53.562;10.038;2022-12-26T07:42:41;100893.94;;;8.20;100.00
29941;BME280;16801;53.562;10.038;2022-12-26T07:46:02;100894.53;;;8.23;100.00
29941;BME280;16801;53.562;10.038;2022-12-26T07:49:24;100880.78;;;8.28;100.00
29941;BME280;16801;53.562;10.038;2022-12-26T07:52:45;100877.00;;;8.30;100.00
29941;BME280;16801;53.562;10.038;2022-12-26T07:56:07;100866.00;;;8.33;100.00
29941;BME280;16801;53.562;10.038;2022-12-26T07:59:28;100863.44;;;8.32;100.00
29941;BME280;16801;53.562;10.038;2022-12-26T08:02:50;100859.53;;;8.36;100.00
29941;BME280;16801;53.562;10.038;2022-12-26T08:06:11;100852.22;;;8.38;100.00
29941;BME280;16801;53.562;10.038;2022-12-26T08:09:32;100851.13;;;8.40;100.00
29941;BME280;16801;53.562;10.038;2022-12-26T08:12:54;100842.91;;;8.42;100.00
29941;BME280;16801;53.562;10.038;2022-12-26T08:16:16;100846.09;;;8.47;100.00
29941;BME280;16801;53.562;10.038;2022-12-26T08:19:37;100843.88;;;8.52;100.00
29941;BME280;16801;53.562;10.038;2022-12-26T08:22:58;100846.56;;;8.52;100.00
29941;BME280;16801;53.562;10.038;2022-12-26T08:26:18;100855.34;;;8.54;100.00
29941;BME280;16801;53.562;10.038;2022-12-26T08:29:43;100847.16;;;8.55;100.00
29941;BME280;16801;53.562;10.038;2022-12-26T08:33:04;100839.00;;;8.57;100.00
29941;BME280;16801;53.562;10.038;2022-12-26T08:36:25;100860.22;;;8.60;100.00
29941;BME280;16801;53.562;10.038;2022-12-26T08:39:46;100858.03;;;8.65;100.00
29941;BME280;16801;53.562;10.038;2022-12-26T08:43:07;100848.25;;;8.64;100.00
29941;BME280;16801;53.562;10.038;2022-12-26T08:46:29;100849.84;;;8.66;100.00
29941;BME280;16801;53.562;10.038;2022-12-26T08:49:50;100840.09;;;8.65;100.00
29941;BME280;16801;53.562;10.038;2022-12-26T08:53:10;100853.53;;;8.65;100.00
29941;BME280;16801;53.562;10.038;2022-12-26T08:56:31;100843.59;;;8.66;100.00
29941;BME280;16801;53.562;10.038;2022-12-26T08:59:52;100840.94;;;8.66;100.00
29941;BME280;16801;53.562;10.038;2022-12-26T09:03:14;100842.88;;;8.64;100.00
29941;BME280;16801;53.562;10.038;2022-12-26T09:06:37;100849.97;;;8.65;100.00
29941;BME280;16801;53.562;10.038;2022-12-26T09:09:59;100854.34;;;8.66;100.00
29941;BME280;16801;53.562;10.038;2022-12-26T09:13:20;100865.84;;;8.68;100.00
29941;BME280;16801;53.562;10.038;2022-12-26T09:16:42;100869.53;;;8.67;100.00
29941;BME280;16801;53.562;10.038;2022-12-26T09:20:07;100876.84;;;8.65;100.00
29941;BME280;16801;53.562;10.038;2022-12-26T09:23:29;100885.66;;;8.67;100.00
29941;BME280;16801;53.562;10.038;2022-12-26T09:26:51;100891.63;;;8.70;100.00
29941;BME280;16801;53.562;10.038;2022-12-26T09:30:13;100891.63;;;8.70;100.00
29941;BME280;16801;53.562;10.038;2022-12-26T09:33:33;100902.38;;;8.70;100.00
29941;BME280;16801;53.562;10.038;2022-12-26T09:36:57;100894.16;;;8.72;100.00
29941;BME280;16801;53.562;10.038;2022-12-26T09:40:21;100890.53;;;8.73;100.00
29941;BME280;16801;53.562;10.038;2022-12-26T09:43:56;100896.84;;;8.72;100.00
29941;BME280;16801;53.562;10.038;2022-12-26T09:47:30;100891.38;;;8.73;100.00
29941;BME280;16801;53.562;10.038;2022-12-26T09:50:51;100883.06;;;8.76;100.00
29941;BME280;16801;53.562;10.038;2022-12-26T09:54:18;100898.81;;;8.81;100.00
29941;BME280;16801;53.562;10.038;2022-12-26T09:57:43;100906.63;;;8.84;100.00
29941;BME280;16801;53.562;10.038;2022-12-26T10:01:09;100895.03;;;8.83;100.00
29941;BME280;16801;53.562;10.038;2022-12-26T10:04:30;100900.28;;;8.85;100.00
29941;BME280;16801;53.562;10.038;2022-12-26T10:07:56;100896.25;;;8.91;99.84
29941;BME280;16801;53.562;10.038;2022-12-26T10:11:24;100880.34;;;8.88;100.00
29941;BME280;16801;53.562;10.038;2022-12-26T10:14:54;100871.19;;;8.90;99.59
29941;BME280;16801;53.562;10.038;2022-12-26T10:18:27;100873.00;;;8.90;99.53
29941;BME280;16801;53.562;10.038;2022-12-26T10:21:59;100857.63;;;8.92;99.75
29941;BME280;16801;53.562;10.038;2022-12-26T10:25:37;100863.00;;;8.92;99.49
29941;BME280;16801;53.562;10.038;2022-12-26T10:29:09;100872.88;;;8.91;99.79
29941;BME280;16801;53.562;10.038;2022-12-26T10:32:35;100853.25;;;8.91;99.28
29941;BME280;16801;53.562;10.038;2022-12-26T10:35:57;100862.13;;;8.91;99.73
29941;BME280;16801;53.562;10.038;2022-12-26T10:39:22;100858.47;;;8.92;99.69
29941;BME280;16801;53.562;10.038;2022-12-26T10:42:45;100861.75;;;8.96;99.60
29941;BME280;16801;53.562;10.038;2022-12-26T10:46:49;100857.09;;;8.98;99.05
29941;BME280;16801;53.562;10.038;2022-12-26T10:50:15;100849.91;;;8.98;98.95
29941;BME280;16801;53.562;10.038;2022-12-26T10:53:40;100856.34;;;9.07;98.86
29941;BME280;16801;53.562;10.038;2022-12-26T10:57:02;100849.00;;;9.09;98.71
29941;BME280;16801;53.562;10.038;2022-12-26T11:00:26;100844.59;;;9.08;98.34
29941;BME280;16801;53.562;10.038;2022-12-26T11:03:55;100841.53;;;9.12;98.65
29941;BME280;16801;53.562;10.038;2022-12-26T11:07:17;100840.09;;;9.08;97.98
29941;BME280;16801;53.562;10.038;2022-12-26T11:10:38;100825.53;;;9.11;97.83
29941;BME280;16801;53.562;10.038;2022-12-26T11:14:00;100826.25;;;9.13;97.42
29941;BME280;16801;53.562;10.038;2022-12-26T11:17:26;100825.16;;;9.15;96.82
29941;BME280;16801;53.562;10.038;2022-12-26T11:20:49;100820.75;;;9.14;96.69
29941;BME280;16801;53.562;10.038;2022-12-26T11:24:15;100827.13;;;9.13;96.76
29941;BME280;16801;53.562;10.038;2022-12-26T11:27:39;100819.06;;;9.13;96.88
29941;BME280;16801;53.562;10.038;2022-12-26T11:31:04;100812.69;;;9.14;96.04
29941;BME280;16801;53.562;10.038;2022-12-26T11:34:28;100815.13;;;9.17;95.76
29941;BME280;16801;53.562;10.038;2022-12-26T11:37:54;100800.97;;;9.15;95.13
29941;BME280;16801;53.562;10.038;2022-12-26T11:41:19;100803.38;;;9.18;95.55
29941;BME280;16801;53.562;10.038;2022-12-26T11:44:53;100783.56;;;9.19;95.34
29941;BME280;16801;53.562;10.038;2022-12-26T11:48:21;100795.31;;;9.18;95.56
29941;BME280;16801;53.562;10.038;2022-12-26T11:51:46;100790.41;;;9.23;94.99
29941;BME280;16801;53.562;10.038;2022-12-26T11:55:32;100786.72;;;9.24;94.66
29941;BME280;16801;53.562;10.038;2022-12-26T11:59:06;100789.88;;;9.29;94.12
29941;BME280;16801;53.562;10.038;2022-12-26T12:02:36;100776.28;;;9.31;93.97
29941;BME280;16801;53.562;10.038;2022-12-26T12:06:02;100754.78;;;9.31;94.24
29941;BME280;16801;53.562;10.038;2022-12-26T12:09:31;100780.56;;;9.33;94.83
29941;BME280;16801;53.562;10.038;2022-12-26T12:13:02;100782.19;;;9.25;95.37
29941;BME280;16801;53.562;10.038;2022-12-26T12:16:44;100770.72;;;9.23;95.60
29941;BME280;16801;53.562;10.038;2022-12-26T12:20:18;100766.75;;;9.06;98.34
29941;BME280;16801;53.562;10.038;2022-12-26T12:23:54;100765.56;;;8.99;99.50
29941;BME280;16801;53.562;10.038;2022-12-26T12:27:24;100745.91;;;8.99;99.84
29941;BME280;16801;53.562;10.038;2022-12-26T12:30:55;100767.28;;;9.00;100.00
29941;BME280;16801;53.562;10.038;2022-12-26T12:34:25;100764.47;;;9.02;99.96
29941;BME280;16801;53.562;10.038;2022-12-26T12:38:19;100762.38;;;9.05;99.88
29941;BME280;16801;53.562;10.038;2022-12-26T12:41:55;100777.59;;;9.16;98.64
29941;BME280;16801;53.562;10.038;2022-12-26T12:45:23;100775.22;;;9.22;97.96
29941;BME280;16801;53.562;10.038;2022-12-26T12:49:19;100773.88;;;9.28;97.48
29941;BME280;16801;53.562;10.038;2022-12-26T12:52:47;100769.31;;;9.28;97.20
29941;BME280;16801;53.562;10.038;2022-12-26T12:56:21;100769.31;;;9.28;96.87
29941;BME280;16801;53.562;10.038;2022-12-26T13:00:02;100768.59;;;9.26;96.91
29941;BME280;16801;53.562;10.038;2022-12-26T13:03:34;100761.47;;;9.36;95.74
29941;BME280;16801;53.562;10.038;2022-12-26T13:07:03;100776.28;;;9.51;94.71
29941;BME280;16801;53.562;10.038;2022-12-26T13:10:29;100767.22;;;9.73;93.81
29941;BME280;16801;53.562;10.038;2022-12-26T13:13:53;100771.69;;;9.63;93.45
29941;BME280;16801;53.562;10.038;2022-12-26T13:17:19;100784.34;;;9.72;92.13
29941;BME280;16801;53.562;10.038;2022-12-26T13:20:43;100786.75;;;10.75;86.36
29941;BME280;16801;53.562;10.038;2022-12-26T13:24:13;100778.78;;;10.55;86.88
29941;BME280;16801;53.562;10.038;2022-12-26T13:27:45;100784.78;;;9.98;88.57
29941;BME280;16801;53.562;10.038;2022-12-26T13:31:08;100807.75;;;9.72;86.98
29941;BME280;16801;53.562;10.038;2022-12-26T13:34:29;100814.38;;;9.68;85.86
29941;BME280;16801;53.562;10.038;2022-12-26T13:37:55;100819.75;;;9.68;85.97
29941;BME280;16801;53.562;10.038;2022-12-26T13:41:18;100835.19;;;9.65;84.66
29941;BME280;16801;53.562;10.038;2022-12-26T13:48:57;100859.47;;;9.23;80.76
29941;BME280;16801;53.562;10.038;2022-12-26T13:52:32;100863.56;;;9.06;80.96
29941;BME280;16801;53.562;10.038;2022-12-26T13:55:55;100884.50;;;8.80;81.61
29941;BME280;16801;53.562;10.038;2022-12-26T13:59:21;100893.97;;;8.53;83.78
29941;BME280;16801;53.562;10.038;2022-12-26T14:03:25;100898.47;;;8.52;84.28
29941;BME280;16801;53.562;10.038;2022-12-26T14:06:59;100914.97;;;8.48;84.86
29941;BME280;16801;53.562;10.038;2022-12-26T14:10:29;100937.16;;;8.39;84.75
29941;BME280;16801;53.562;10.038;2022-12-26T14:14:02;100947.09;;;8.38;86.98
29941;BME280;16801;53.562;10.038;2022-12-26T14:17:36;100952.44;;;7.92;89.28
29941;BME280;16801;53.562;10.038;2022-12-26T14:21:35;100950.97;;;7.88;90.53
29941;BME280;16801;53.562;10.038;2022-12-26T14:25:07;100968.81;;;8.00;90.20
29941;BME280;16801;53.562;10.038;2022-12-26T14:28:35;100964.66;;;7.96;88.15
29941;BME280;16801;53.562;10.038;2022-12-26T14:32:11;100996.81;;;7.85;87.21
29941;BME280;16801;53.562;10.038;2022-12-26T14:35:42;100996.53;;;7.77;88.37
29941;BME280;16801;53.562;10.038;2022-12-26T14:39:17;101004.06;;;7.72;87.27
29941;BME280;16801;53.562;10.038;2022-12-26T14:46:55;101031.19;;;7.57;88.73
29941;BME280;16801;53.562;10.038;2022-12-26T14:50:39;101035.75;;;7.44;88.46
29941;BME280;16801;53.562;10.038;2022-12-26T14:54:33;101042.19;;;7.41;90.06
29941;BME280;16801;53.562;10.038;2022-12-26T14:57:55;101026.75;;;7.45;89.13
29941;BME280;16801;53.562;10.038;2022-12-26T15:01:48;101042.34;;;7.14;91.10
29941;BME280;16801;53.562;10.038;2022-12-26T15:05:19;101067.31;;;7.28;91.26
29941;BME280;16801;53.562;10.038;2022-12-26T15:08:58;101077.19;;;7.27;91.36
29941;BME280;16801;53.562;10.038;2022-12-26T15:16:22;101097.59;;;7.17;89.64
29941;BME280;16801;53.562;10.038;2022-12-26T15:20:19;101107.25;;;7.07;89.54
29941;BME280;16801;53.562;10.038;2022-12-26T15:27:51;101103.81;;;7.05;89.42
29941;BME280;16801;53.562;10.038;2022-12-26T15:31:36;101105.63;;;7.04;89.48
29941;BME280;16801;53.562;10.038;2022-12-26T15:35:12;101133.31;;;6.92;89.36
29941;BME280;16801;53.562;10.038;2022-12-26T15:38:40;101120.53;;;6.96;88.57
29941;BME280;16801;53.562;10.038;2022-12-26T15:42:14;101128.69;;;6.94;86.33
29941;BME280;16801;53.562;10.038;2022-12-26T15:45:44;101121.47;;;6.82;86.90
29941;BME280;16801;53.562;10.038;2022-12-26T15:49:23;101127.38;;;6.75;87.99
29941;BME280;16801;53.562;10.038;2022-12-26T15:52:52;101132.09;;;6.59;88.72
29941;BME280;16801;53.562;10.038;2022-12-26T15:56:35;101132.09;;;6.59;88.59
29941;BME280;16801;53.562;10.038;2022-12-26T16:00:10;101144.72;;;6.57;88.59
29941;BME280;16801;53.562;10.038;2022-12-26T16:03:36;101153.41;;;6.60;88.17
29941;BME280;16801;53.562;10.038;2022-12-26T16:07:07;101151.34;;;6.51;88.07
29941;BME280;16801;53.562;10.038;2022-12-26T16:10:30;101155.97;;;6.62;86.83
29941;BME280;16801;53.562;10.038;2022-12-26T16:13:58;101166.97;;;6.57;85.90
29941;BME280;16801;53.562;10.038;2022-12-26T16:17:21;101174.72;;;6.62;85.71
29941;BME280;16801;53.562;10.038;2022-12-26T16:20:43;101178.03;;;6.53;84.39
29941;BME280;16801;53.562;10.038;2022-12-26T16:24:23;101172.72;;;6.38;84.71
29941;BME280;16801;53.562;10.038;2022-12-26T16:27:46;101186.50;;;6.32;83.51
29941;BME280;16801;53.562;10.038;2022-12-26T16:31:16;101187.50;;;6.31;83.07
29941;BME280;16801;53.562;10.038;2022-12-26T16:34:39;101184.53;;;6.22;83.19
29941;BME280;16801;53.562;10.038;2022-12-26T16:38:02;101185.53;;;6.21;83.35
29941;BME280;16801;53.562;10.038;2022-12-26T16:41:25;101189.84;;;6.09;82.72
29941;BME280;16801;53.562;10.038;2022-12-26T16:44:46;101189.66;;;6.12;82.49
29941;BME280;16801;53.562;10.038;2022-12-26T16:48:08;101201.22;;;6.13;82.50
29941;BME280;16801;53.562;10.038;2022-12-26T16:51:37;101197.94;;;6.22;82.73
29941;BME280;16801;53.562;10.038;2022-12-26T16:55:23;101208.97;;;6.17;82.27
29941;BME280;16801;53.562;10.038;2022-12-26T16:58:45;101201.78;;;6.18;82.54
29941;BME280;16801;53.562;10.038;2022-12-26T17:02:14;101199.56;;;6.24;81.79
29941;BME280;16801;53.562;10.038;2022-12-26T17:05:35;101210.00;;;6.15;82.27
29941;BME280;16801;53.562;10.038;2022-12-26T17:09:06;101222.94;;;6.08;82.51
29941;BME280;16801;53.562;10.038;2022-12-26T17:12:31;101226.88;;;6.03;82.56
29941;BME280;16801;53.562;10.038;2022-12-26T17:15:55;101234.31;;;5.98;82.78
29941;BME280;16801;53.562;10.038;2022-12-26T17:19:18;101238.81;;;5.97;82.88
29941;BME280;16801;53.562;10.038;2022-12-26T17:22:39;101243.28;;;5.97;82.98
29941;BME280;16801;53.562;10.038;2022-12-26T17:26:17;101252.19;;;5.97;82.97
29941;BME280;16801;53.562;10.038;2022-12-26T17:29:55;101243.50;;;5.94;83.22
29941;BME280;16801;53.562;10.038;2022-12-26T17:33:18;101247.41;;;6.02;83.15
29941;BME280;16801;53.562;10.038;2022-12-26T17:36:40;101242.34;;;5.98;83.26
29941;BME280;16801;53.562;10.038;2022-12-26T17:40:06;101247.41;;;6.02;83.02
29941;BME280;16801;53.562;10.038;2022-12-26T17:43:31;101243.00;;;6.01;82.80
29941;BME280;16801;53.562;10.038;2022-12-26T17:46:52;101246.19;;;5.94;82.89
29941;BME280;16801;53.562;10.038;2022-12-26T17:50:13;101254.97;;;5.96;82.41
29941;BME280;16801;53.562;10.038;2022-12-26T17:53:36;101255.66;;;5.85;82.30
29941;BME280;16801;53.562;10.038;2022-12-26T17:56:57;101245.81;;;5.86;81.64
29941;BME280;16801;53.562;10.038;2022-12-26T18:00:22;101248.56;;;5.84;81.18
29941;BME280;16801;53.562;10.038;2022-12-26T18:03:43;101257.06;;;5.77;81.64
29941;BME280;16801;53.562;10.038;2022-12-26T18:07:04;101256.47;;;5.72;81.38
29941;BME280;16801;53.562;10.038;2022-12-26T18:10:28;101268.13;;;5.71;81.47
29941;BME280;16801;53.562;10.038;2022-12-26T18:13:49;101269.00;;;5.71;81.63
29941;BME280;16801;53.562;10.038;2022-12-26T18:17:13;101277.69;;;5.75;81.04
29941;BME280;16801;53.562;10.038;2022-12-26T18:20:35;101285.06;;;5.71;80.90
29941;BME280;16801;53.562;10.038;2022-12-26T18:23:56;101282.84;;;5.63;81.66